University Park, PA

10:47 AM EST on December 04, 2016 (GMT -0500)
College Heights | | Change Station

Elev 1219 ft 40.80 °N, 77.87 °W | Updated 36 seconds ago

Overcast
Overcast
37.8 °F
Feels Like 38 °F
N
0.0
Wind Variable Wind from NNE
Gusts 1.0 mph

Today
High -- | Low -- °F
--% Chance of Precip.
Yesterday
High -- | Low -- °F
Precip. -- in
Pressure 30.23 in
Visibility 10.0 miles
Clouds Overcast 3200 ft
Windchill 38 °F
Dew Point 30 °F
Humidity 74%
Rainfall 0.00 in
Snow Depth Not available.
7:19 AM 4:43 PM
Waxing Crescent, 23% visible
METAR KUNV 041453Z 00000KT 10SM OVC032 03/M01 A3023
Pressure 30.23 in
Visibility 10.0 miles
Clouds Overcast 3200 ft
Windchill 38 °F
Dew Point 30 °F
Humidity 74%
Rainfall 0.00 in
Snow Depth Not available.
7:19 AM 4:43 PM
Waxing Crescent, 23% visible
METAR KUNV 041453Z 00000KT 10SM OVC032 03/M01 A3023

10-Day Weather Forecast

Almanac

Astronomy

Dec. 04, 2016 Rise Set
Actual Time
Civil Twilight
Nautical Twilight
Astronomical Twilight
Moon
Length of Visible Light
Length of Day
Tomorrow will be .
, % of the Moon is Illuminated

Today's Extremes

State Highs State Lows

Community

WunderPhotos

Upload Photos

1,955,609 photos uploaded!

WunderBlog® & News

Nearby

Air Quality

  Air Quality AQ Index Pollutant
Not available.

Snow Depth

Station Depth Elevation

Earthquake Activity

City Distance Mag. Time & Date
Minimum magnitude displayed is 2.5.

Coastal Water Temperatures

Place Temperature

Stations

Nearby Weather Stations

Station Location Temp. Windchill Dew Point Humidity Wind Precip. Elev Updated Type
                   

Watches & Warnings

There are currently no watches in effect.